sensor_id;sensor_type;location;lat;lon;timestamp;temperature;humidity
44775;DHT22;31340;51.402;0.016;2023-04-03T00:01:12;7.90;93.90
44775;DHT22;31340;51.402;0.016;2023-04-03T00:03:40;7.80;94.00
44775;DHT22;31340;51.402;0.016;2023-04-03T00:06:11;7.80;94.00
44775;DHT22;31340;51.402;0.016;2023-04-03T00:08:40;7.80;93.80
44775;DHT22;31340;51.402;0.016;2023-04-03T00:11:08;7.70;94.00
44775;DHT22;31340;51.402;0.016;2023-04-03T00:13:37;7.70;94.10
44775;DHT22;31340;51.402;0.016;2023-04-03T00:16:05;7.60;94.10
44775;DHT22;31340;51.402;0.016;2023-04-03T00:18:34;7.60;94.20
44775;DHT22;31340;51.402;0.016;2023-04-03T00:21:01;7.60;94.30
44775;DHT22;31340;51.402;0.016;2023-04-03T00:23:29;7.60;94.40
44775;DHT22;31340;51.402;0.016;2023-04-03T00:25:57;7.60;94.40
44775;DHT22;31340;51.402;0.016;2023-04-03T00:28:24;7.50;94.40
44775;DHT22;31340;51.402;0.016;2023-04-03T00:30:52;7.50;94.50
44775;DHT22;31340;51.402;0.016;2023-04-03T00:33:20;7.50;94.60
44775;DHT22;31340;51.402;0.016;2023-04-03T00:35:49;7.50;94.60
44775;DHT22;31340;51.402;0.016;2023-04-03T00:38:17;7.40;94.70
44775;DHT22;31340;51.402;0.016;2023-04-03T00:40:47;7.40;94.70
44775;DHT22;31340;51.402;0.016;2023-04-03T00:43:21;7.40;94.80
44775;DHT22;31340;51.402;0.016;2023-04-03T00:45:53;7.30;94.90
44775;DHT22;31340;51.402;0.016;2023-04-03T00:48:47;7.30;94.90
44775;DHT22;31340;51.402;0.016;2023-04-03T00:51:20;7.30;95.00
44775;DHT22;31340;51.402;0.016;2023-04-03T00:53:53;7.30;95.00
44775;DHT22;31340;51.402;0.016;2023-04-03T00:56:24;7.20;95.00
44775;DHT22;31340;51.402;0.016;2023-04-03T00:58:54;7.20;95.40
44775;DHT22;31340;51.402;0.016;2023-04-03T01:01:25;7.20;95.20
44775;DHT22;31340;51.402;0.016;2023-04-03T01:03:54;7.10;95.30
44775;DHT22;31340;51.402;0.016;2023-04-03T01:06:27;7.10;95.30
44775;DHT22;31340;51.402;0.016;2023-04-03T01:09:00;7.10;95.40
44775;DHT22;31340;51.402;0.016;2023-04-03T01:11:28;7.10;95.40
44775;DHT22;31340;51.402;0.016;2023-04-03T01:13:56;7.00;95.50
44775;DHT22;31340;51.402;0.016;2023-04-03T01:16:25;7.00;95.50
44775;DHT22;31340;51.402;0.016;2023-04-03T01:18:55;7.00;95.60
44775;DHT22;31340;51.402;0.016;2023-04-03T01:21:48;7.00;95.60
44775;DHT22;31340;51.402;0.016;2023-04-03T01:26:55;6.90;95.70
44775;DHT22;31340;51.402;0.016;2023-04-03T01:29:23;6.90;95.80
44775;DHT22;31340;51.402;0.016;2023-04-03T01:31:58;6.90;95.90
44775;DHT22;31340;51.402;0.016;2023-04-03T01:34:28;6.80;95.90
44775;DHT22;31340;51.402;0.016;2023-04-03T01:36:56;6.80;96.00
44775;DHT22;31340;51.402;0.016;2023-04-03T01:39:23;6.80;96.00
44775;DHT22;31340;51.402;0.016;2023-04-03T01:41:51;6.80;96.10
44775;DHT22;31340;51.402;0.016;2023-04-03T01:44:29;6.70;96.10
44775;DHT22;31340;51.402;0.016;2023-04-03T01:46:57;6.70;96.20
44775;DHT22;31340;51.402;0.016;2023-04-03T01:49:27;6.70;96.20
44775;DHT22;31340;51.402;0.016;2023-04-03T01:51:55;6.60;96.20
44775;DHT22;31340;51.402;0.016;2023-04-03T01:54:23;6.60;96.30
44775;DHT22;31340;51.402;0.016;2023-04-03T01:56:50;6.60;96.40
44775;DHT22;31340;51.402;0.016;2023-04-03T01:59:19;6.60;96.50
44775;DHT22;31340;51.402;0.016;2023-04-03T02:01:47;6.50;96.50
44775;DHT22;31340;51.402;0.016;2023-04-03T02:04:14;6.50;96.50
44775;DHT22;31340;51.402;0.016;2023-04-03T02:06:42;6.50;96.60
44775;DHT22;31340;51.402;0.016;2023-04-03T02:09:12;6.50;96.60
44775;DHT22;31340;51.402;0.016;2023-04-03T02:11:43;6.40;96.70
44775;DHT22;31340;51.402;0.016;2023-04-03T02:14:11;6.40;96.70
44775;DHT22;31340;51.402;0.016;2023-04-03T02:16:38;6.40;96.80
44775;DHT22;31340;51.402;0.016;2023-04-03T02:19:06;6.40;96.80
44775;DHT22;31340;51.402;0.016;2023-04-03T02:21:33;6.40;96.90
44775;DHT22;31340;51.402;0.016;2023-04-03T02:24:01;6.30;96.90
44775;DHT22;31340;51.402;0.016;2023-04-03T02:26:28;6.30;97.00
44775;DHT22;31340;51.402;0.016;2023-04-03T02:28:56;6.30;97.00
44775;DHT22;31340;51.402;0.016;2023-04-03T02:31:23;6.30;97.00
44775;DHT22;31340;51.402;0.016;2023-04-03T02:33:52;6.20;97.00
44775;DHT22;31340;51.402;0.016;2023-04-03T02:36:20;6.20;97.00
44775;DHT22;31340;51.402;0.016;2023-04-03T02:38:52;6.20;97.00
44775;DHT22;31340;51.402;0.016;2023-04-03T02:41:20;6.10;97.00
44775;DHT22;31340;51.402;0.016;2023-04-03T02:43:49;6.10;97.20
44775;DHT22;31340;51.402;0.016;2023-04-03T02:46:17;6.00;97.20
44775;DHT22;31340;51.402;0.016;2023-04-03T02:48:45;6.00;97.20
44775;DHT22;31340;51.402;0.016;2023-04-03T02:51:13;6.00;97.30
44775;DHT22;31340;51.402;0.016;2023-04-03T02:53:40;5.90;97.30
44775;DHT22;31340;51.402;0.016;2023-04-03T02:56:13;5.90;97.30
44775;DHT22;31340;51.402;0.016;2023-04-03T02:58:41;5.90;97.30
44775;DHT22;31340;51.402;0.016;2023-04-03T03:01:10;5.80;97.40
44775;DHT22;31340;51.402;0.016;2023-04-03T03:03:38;5.70;97.40
44775;DHT22;31340;51.402;0.016;2023-04-03T03:06:11;5.70;97.40
44775;DHT22;31340;51.402;0.016;2023-04-03T03:08:40;5.70;97.50
44775;DHT22;31340;51.402;0.016;2023-04-03T03:11:08;5.60;97.40
44775;DHT22;31340;51.402;0.016;2023-04-03T03:13:36;5.60;97.50
44775;DHT22;31340;51.402;0.016;2023-04-03T03:16:04;5.60;97.50
44775;DHT22;31340;51.402;0.016;2023-04-03T03:18:33;5.50;97.60
44775;DHT22;31340;51.402;0.016;2023-04-03T03:21:03;5.40;97.60
44775;DHT22;31340;51.402;0.016;2023-04-03T03:23:31;5.40;97.60
44775;DHT22;31340;51.402;0.016;2023-04-03T03:26:05;5.30;97.70
44775;DHT22;31340;51.402;0.016;2023-04-03T03:28:35;5.30;97.70
44775;DHT22;31340;51.402;0.016;2023-04-03T03:31:05;5.30;97.70
44775;DHT22;31340;51.402;0.016;2023-04-03T03:33:34;5.20;97.80
44775;DHT22;31340;51.402;0.016;2023-04-03T03:36:02;5.20;97.80
44775;DHT22;31340;51.402;0.016;2023-04-03T03:38:29;5.20;97.80
44775;DHT22;31340;51.402;0.016;2023-04-03T03:40:59;5.20;97.90
44775;DHT22;31340;51.402;0.016;2023-04-03T03:43:27;5.10;97.90
44775;DHT22;31340;51.402;0.016;2023-04-03T03:45:54;5.10;97.90
44775;DHT22;31340;51.402;0.016;2023-04-03T03:48:24;5.10;97.90
44775;DHT22;31340;51.402;0.016;2023-04-03T03:50:52;5.00;97.90
44775;DHT22;31340;51.402;0.016;2023-04-03T03:53:23;5.00;98.00
44775;DHT22;31340;51.402;0.016;2023-04-03T03:55:53;5.00;98.00
44775;DHT22;31340;51.402;0.016;2023-04-03T03:58:24;5.00;98.00
44775;DHT22;31340;51.402;0.016;2023-04-03T04:00:52;5.00;98.00
44775;DHT22;31340;51.402;0.016;2023-04-03T04:03:19;4.90;98.00
44775;DHT22;31340;51.402;0.016;2023-04-03T04:05:49;4.90;98.20
44775;DHT22;31340;51.402;0.016;2023-04-03T04:08:17;4.90;98.20
44775;DHT22;31340;51.402;0.016;2023-04-03T04:10:46;4.90;98.30
44775;DHT22;31340;51.402;0.016;2023-04-03T04:13:16;4.80;98.30
44775;DHT22;31340;51.402;0.016;2023-04-03T04:15:44;4.80;98.30
44775;DHT22;31340;51.402;0.016;2023-04-03T04:18:13;4.80;98.40
44775;DHT22;31340;51.402;0.016;2023-04-03T04:20:45;4.80;98.30
44775;DHT22;31340;51.402;0.016;2023-04-03T04:23:14;4.80;98.40
44775;DHT22;31340;51.402;0.016;2023-04-03T04:25:44;4.80;98.50
44775;DHT22;31340;51.402;0.016;2023-04-03T04:28:13;4.70;98.50
44775;DHT22;31340;51.402;0.016;2023-04-03T04:30:41;4.80;98.50
44775;DHT22;31340;51.402;0.016;2023-04-03T04:33:10;4.70;98.50
44775;DHT22;31340;51.402;0.016;2023-04-03T04:35:38;4.70;98.50
44775;DHT22;31340;51.402;0.016;2023-04-03T04:38:06;4.70;98.60
44775;DHT22;31340;51.402;0.016;2023-04-03T04:40:36;4.70;98.60
44775;DHT22;31340;51.402;0.016;2023-04-03T04:43:05;4.70;98.60
44775;DHT22;31340;51.402;0.016;2023-04-03T04:45:33;4.70;98.70
44775;DHT22;31340;51.402;0.016;2023-04-03T04:48:02;4.60;98.70
44775;DHT22;31340;51.402;0.016;2023-04-03T04:50:30;4.60;98.70
44775;DHT22;31340;51.402;0.016;2023-04-03T04:52:58;4.60;98.80
44775;DHT22;31340;51.402;0.016;2023-04-03T04:55:25;4.60;98.80
44775;DHT22;31340;51.402;0.016;2023-04-03T04:57:53;4.60;98.90
44775;DHT22;31340;51.402;0.016;2023-04-03T05:00:21;4.60;99.00
44775;DHT22;31340;51.402;0.016;2023-04-03T05:02:49;4.60;99.10
44775;DHT22;31340;51.402;0.016;2023-04-03T05:05:19;4.60;99.10
44775;DHT22;31340;51.402;0.016;2023-04-03T05:07:47;4.60;99.20
44775;DHT22;31340;51.402;0.016;2023-04-03T05:10:17;4.60;99.20
44775;DHT22;31340;51.402;0.016;2023-04-03T05:12:45;4.60;99.20
44775;DHT22;31340;51.402;0.016;2023-04-03T05:15:13;4.60;99.30
44775;DHT22;31340;51.402;0.016;2023-04-03T05:17:41;4.60;99.40
44775;DHT22;31340;51.402;0.016;2023-04-03T05:20:12;4.70;99.50
44775;DHT22;31340;51.402;0.016;2023-04-03T05:22:41;4.60;99.30
44775;DHT22;31340;51.402;0.016;2023-04-03T05:25:09;4.60;99.40
44775;DHT22;31340;51.402;0.016;2023-04-03T05:27:38;4.70;99.50
44775;DHT22;31340;51.402;0.016;2023-04-03T05:30:06;4.70;99.60
44775;DHT22;31340;51.402;0.016;2023-04-03T05:32:36;4.70;99.60
44775;DHT22;31340;51.402;0.016;2023-04-03T05:35:14;4.70;99.60
44775;DHT22;31340;51.402;0.016;2023-04-03T05:37:44;4.80;99.70
44775;DHT22;31340;51.402;0.016;2023-04-03T05:40:15;4.80;99.70
44775;DHT22;31340;51.402;0.016;2023-04-03T05:42:47;4.80;99.80
44775;DHT22;31340;51.402;0.016;2023-04-03T05:45:16;4.80;99.80
44775;DHT22;31340;51.402;0.016;2023-04-03T05:47:44;4.80;99.90
44775;DHT22;31340;51.402;0.016;2023-04-03T05:50:12;4.90;99.90
44775;DHT22;31340;51.402;0.016;2023-04-03T05:52:43;4.90;99.90
44775;DHT22;31340;51.402;0.016;2023-04-03T05:55:12;4.90;99.90
44775;DHT22;31340;51.402;0.016;2023-04-03T05:57:40;4.90;99.90
44775;DHT22;31340;51.402;0.016;2023-04-03T06:00:11;5.00;99.90
44775;DHT22;31340;51.402;0.016;2023-04-03T06:02:48;5.00;99.90
44775;DHT22;31340;51.402;0.016;2023-04-03T06:05:21;5.00;99.90
44775;DHT22;31340;51.402;0.016;2023-04-03T06:07:48;5.00;99.90
44775;DHT22;31340;51.402;0.016;2023-04-03T06:10:17;5.10;99.90
44775;DHT22;31340;51.402;0.016;2023-04-03T06:12:45;5.10;99.90
44775;DHT22;31340;51.402;0.016;2023-04-03T06:15:13;5.20;99.90
44775;DHT22;31340;51.402;0.016;2023-04-03T06:17:41;5.20;99.90
44775;DHT22;31340;51.402;0.016;2023-04-03T06:20:09;5.30;99.90
44775;DHT22;31340;51.402;0.016;2023-04-03T06:22:37;5.30;99.90
44775;DHT22;31340;51.402;0.016;2023-04-03T06:25:05;5.30;99.90
44775;DHT22;31340;51.402;0.016;2023-04-03T06:27:33;5.30;99.90
44775;DHT22;31340;51.402;0.016;2023-04-03T06:30:01;5.40;99.90
44775;DHT22;31340;51.402;0.016;2023-04-03T06:32:28;5.40;99.90
44775;DHT22;31340;51.402;0.016;2023-04-03T06:34:56;5.40;99.90
44775;DHT22;31340;51.402;0.016;2023-04-03T06:37:24;5.40;99.90
44775;DHT22;31340;51.402;0.016;2023-04-03T06:39:56;5.50;99.90
44775;DHT22;31340;51.402;0.016;2023-04-03T06:42:24;5.50;99.90
44775;DHT22;31340;51.402;0.016;2023-04-03T06:45:12;5.50;99.90
44775;DHT22;31340;51.402;0.016;2023-04-03T06:47:39;5.60;99.90
44775;DHT22;31340;51.402;0.016;2023-04-03T06:50:07;5.60;99.90
44775;DHT22;31340;51.402;0.016;2023-04-03T06:52:36;5.70;99.90
44775;DHT22;31340;51.402;0.016;2023-04-03T06:55:04;5.70;99.90
44775;DHT22;31340;51.402;0.016;2023-04-03T06:57:32;5.80;99.90
44775;DHT22;31340;51.402;0.016;2023-04-03T06:59:59;5.80;99.90
44775;DHT22;31340;51.402;0.016;2023-04-03T07:02:27;5.90;99.90
44775;DHT22;31340;51.402;0.016;2023-04-03T07:04:54;6.00;99.90
44775;DHT22;31340;51.402;0.016;2023-04-03T07:07:22;6.00;99.90
44775;DHT22;31340;51.402;0.016;2023-04-03T07:09:49;6.10;99.90
44775;DHT22;31340;51.402;0.016;2023-04-03T07:12:17;6.10;99.90
44775;DHT22;31340;51.402;0.016;2023-04-03T07:14:44;6.20;99.90
44775;DHT22;31340;51.402;0.016;2023-04-03T07:17:12;6.30;99.90
44775;DHT22;31340;51.402;0.016;2023-04-03T07:19:39;6.30;99.90
44775;DHT22;31340;51.402;0.016;2023-04-03T07:22:07;6.40;99.90
44775;DHT22;31340;51.402;0.016;2023-04-03T07:24:35;6.40;99.90
44775;DHT22;31340;51.402;0.016;2023-04-03T07:27:03;6.40;99.90
44775;DHT22;31340;51.402;0.016;2023-04-03T07:29:31;6.50;99.90
44775;DHT22;31340;51.402;0.016;2023-04-03T07:31:59;6.60;99.90
44775;DHT22;31340;51.402;0.016;2023-04-03T07:34:28;6.60;99.90
44775;DHT22;31340;51.402;0.016;2023-04-03T07:36:55;6.70;99.90
44775;DHT22;31340;51.402;0.016;2023-04-03T07:39:24;6.80;99.90
44775;DHT22;31340;51.402;0.016;2023-04-03T07:41:51;6.90;99.90
44775;DHT22;31340;51.402;0.016;2023-04-03T07:44:19;7.00;99.90
44775;DHT22;31340;51.402;0.016;2023-04-03T07:46:46;7.00;99.90
44775;DHT22;31340;51.402;0.016;2023-04-03T07:49:14;7.10;99.90
44775;DHT22;31340;51.402;0.016;2023-04-03T07:51:42;7.20;99.90
44775;DHT22;31340;51.402;0.016;2023-04-03T07:54:09;7.30;99.90
44775;DHT22;31340;51.402;0.016;2023-04-03T07:56:37;7.30;99.90
44775;DHT22;31340;51.402;0.016;2023-04-03T07:59:05;7.40;99.90
44775;DHT22;31340;51.402;0.016;2023-04-03T08:01:33;7.50;99.90
44775;DHT22;31340;51.402;0.016;2023-04-03T08:04:01;7.60;99.90
44775;DHT22;31340;51.402;0.016;2023-04-03T08:06:30;7.60;99.90
44775;DHT22;31340;51.402;0.016;2023-04-03T08:09:15;7.70;99.90
44775;DHT22;31340;51.402;0.016;2023-04-03T08:11:43;7.70;99.90
44775;DHT22;31340;51.402;0.016;2023-04-03T08:14:12;7.80;99.90
44775;DHT22;31340;51.402;0.016;2023-04-03T08:16:45;7.90;99.90
44775;DHT22;31340;51.402;0.016;2023-04-03T08:19:17;7.90;99.90
44775;DHT22;31340;51.402;0.016;2023-04-03T08:21:54;8.00;99.90
44775;DHT22;31340;51.402;0.016;2023-04-03T08:24:22;8.10;99.90
44775;DHT22;31340;51.402;0.016;2023-04-03T08:26:49;8.20;99.90
44775;DHT22;31340;51.402;0.016;2023-04-03T08:29:17;8.30;99.90
44775;DHT22;31340;51.402;0.016;2023-04-03T08:31:44;8.30;99.90
44775;DHT22;31340;51.402;0.016;2023-04-03T08:34:12;8.40;99.90
44775;DHT22;31340;51.402;0.016;2023-04-03T08:36:40;8.50;99.90
44775;DHT22;31340;51.402;0.016;2023-04-03T08:39:08;8.50;99.90
44775;DHT22;31340;51.402;0.016;2023-04-03T08:41:41;8.60;99.90
44775;DHT22;31340;51.402;0.016;2023-04-03T08:51:15;8.90;99.90
44775;DHT22;31340;51.402;0.016;2023-04-03T08:53:58;9.00;99.90
44775;DHT22;31340;51.402;0.016;2023-04-03T08:56:29;9.10;99.90
44775;DHT22;31340;51.402;0.016;2023-04-03T08:59:00;9.20;99.90
44775;DHT22;31340;51.402;0.016;2023-04-03T09:01:37;9.30;99.90
44775;DHT22;31340;51.402;0.016;2023-04-03T09:04:14;9.50;99.90
44775;DHT22;31340;51.402;0.016;2023-04-03T09:06:59;9.60;99.90
44775;DHT22;31340;51.402;0.016;2023-04-03T09:09:40;9.70;99.90
44775;DHT22;31340;51.402;0.016;2023-04-03T09:12:42;9.80;99.90
44775;DHT22;31340;51.402;0.016;2023-04-03T09:15:22;10.00;99.90
44775;DHT22;31340;51.402;0.016;2023-04-03T09:18:15;10.10;99.90
44775;DHT22;31340;51.402;0.016;2023-04-03T09:20:51;10.20;99.90
44775;DHT22;31340;51.402;0.016;2023-04-03T09:26:16;10.50;99.90
44775;DHT22;31340;51.402;0.016;2023-04-03T09:28:45;10.60;99.90
44775;DHT22;31340;51.402;0.016;2023-04-03T09:31:26;10.70;99.90
44775;DHT22;31340;51.402;0.016;2023-04-03T09:34:02;10.90;99.90
44775;DHT22;31340;51.402;0.016;2023-04-03T09:36:47;11.00;99.90
44775;DHT22;31340;51.402;0.016;2023-04-03T09:39:27;11.10;99.80
44775;DHT22;31340;51.402;0.016;2023-04-03T09:42:02;11.20;99.70
44775;DHT22;31340;51.402;0.016;2023-04-03T09:47:33;11.50;99.20
44775;DHT22;31340;51.402;0.016;2023-04-03T09:52:46;11.60;98.40
44775;DHT22;31340;51.402;0.016;2023-04-03T09:55:27;11.70;98.20
44775;DHT22;31340;51.402;0.016;2023-04-03T09:58:00;11.70;97.90
44775;DHT22;31340;51.402;0.016;2023-04-03T10:00:35;11.80;97.70
44775;DHT22;31340;51.402;0.016;2023-04-03T10:03:08;11.90;98.00
44775;DHT22;31340;51.402;0.016;2023-04-03T10:05:53;12.00;97.70
44775;DHT22;31340;51.402;0.016;2023-04-03T10:08:29;12.10;97.80
44775;DHT22;31340;51.402;0.016;2023-04-03T10:11:16;12.20;97.60
44775;DHT22;31340;51.402;0.016;2023-04-03T10:13:59;12.30;97.30
44775;DHT22;31340;51.402;0.016;2023-04-03T10:16:41;12.40;97.50
44775;DHT22;31340;51.402;0.016;2023-04-03T10:19:40;12.50;96.90
44775;DHT22;31340;51.402;0.016;2023-04-03T10:22:28;12.60;96.70
44775;DHT22;31340;51.402;0.016;2023-04-03T10:25:09;12.70;96.50
44775;DHT22;31340;51.402;0.016;2023-04-03T10:30:42;12.80;95.80
44775;DHT22;31340;51.402;0.016;2023-04-03T10:38:43;13.00;95.00
44775;DHT22;31340;51.402;0.016;2023-04-03T10:47:06;13.10;94.20
44775;DHT22;31340;51.402;0.016;2023-04-03T10:49:42;13.10;94.00
44775;DHT22;31340;51.402;0.016;2023-04-03T10:52:51;13.20;93.40
44775;DHT22;31340;51.402;0.016;2023-04-03T10:58:03;13.30;92.80
44775;DHT22;31340;51.402;0.016;2023-04-03T11:00:43;13.30;92.50
44775;DHT22;31340;51.402;0.016;2023-04-03T11:03:16;13.40;92.00
44775;DHT22;31340;51.402;0.016;2023-04-03T11:05:52;13.40;92.00
44775;DHT22;31340;51.402;0.016;2023-04-03T11:11:00;13.60;91.70
44775;DHT22;31340;51.402;0.016;2023-04-03T11:13:45;13.70;91.30
44775;DHT22;31340;51.402;0.016;2023-04-03T11:16:26;13.80;91.00
44775;DHT22;31340;51.402;0.016;2023-04-03T11:19:03;13.90;90.40
44775;DHT22;31340;51.402;0.016;2023-04-03T11:21:37;14.00;90.30
44775;DHT22;31340;51.402;0.016;2023-04-03T11:24:47;14.10;89.50
44775;DHT22;31340;51.402;0.016;2023-04-03T11:27:19;14.10;88.50
44775;DHT22;31340;51.402;0.016;2023-04-03T11:29:52;14.30;88.60
44775;DHT22;31340;51.402;0.016;2023-04-03T11:35:11;14.50;87.20
44775;DHT22;31340;51.402;0.016;2023-04-03T11:37:48;14.60;87.00
44775;DHT22;31340;51.402;0.016;2023-04-03T11:42:51;14.80;85.40
44775;DHT22;31340;51.402;0.016;2023-04-03T11:47:51;15.00;84.40
44775;DHT22;31340;51.402;0.016;2023-04-03T11:58:03;15.50;82.90
44775;DHT22;31340;51.402;0.016;2023-04-03T12:22:05;17.10;76.50
44775;DHT22;31340;51.402;0.016;2023-04-03T12:43:59;19.00;67.30
44775;DHT22;31340;51.402;0.016;2023-04-03T12:46:36;19.30;66.80
44775;DHT22;31340;51.402;0.016;2023-04-03T12:49:22;19.50;65.70
44775;DHT22;31340;51.402;0.016;2023-04-03T12:51:50;19.80;64.10
44775;DHT22;31340;51.402;0.016;2023-04-03T12:54:32;20.00;63.90
44775;DHT22;31340;51.402;0.016;2023-04-03T12:57:12;20.30;62.10
44775;DHT22;31340;51.402;0.016;2023-04-03T12:59:39;20.50;60.50
44775;DHT22;31340;51.402;0.016;2023-04-03T13:04:54;20.90;58.60
44775;DHT22;31340;51.402;0.016;2023-04-03T13:07:40;21.00;58.20
44775;DHT22;31340;51.402;0.016;2023-04-03T13:10:14;21.20;60.10
44775;DHT22;31340;51.402;0.016;2023-04-03T13:12:56;21.30;58.50
44775;DHT22;31340;51.402;0.016;2023-04-03T13:15:40;21.50;56.90
44775;DHT22;31340;51.402;0.016;2023-04-03T13:18:28;21.60;56.50
44775;DHT22;31340;51.402;0.016;2023-04-03T13:21:01;21.80;55.30
44775;DHT22;31340;51.402;0.016;2023-04-03T13:23:36;21.90;55.20
44775;DHT22;31340;51.402;0.016;2023-04-03T13:26:06;22.00;54.10
44775;DHT22;31340;51.402;0.016;2023-04-03T13:28:36;22.10;53.50
44775;DHT22;31340;51.402;0.016;2023-04-03T13:31:28;22.20;52.80
44775;DHT22;31340;51.402;0.016;2023-04-03T13:41:59;22.60;50.50
44775;DHT22;31340;51.402;0.016;2023-04-03T13:44:34;22.70;49.90
44775;DHT22;31340;51.402;0.016;2023-04-03T13:47:17;22.80;49.30
44775;DHT22;31340;51.402;0.016;2023-04-03T13:50:00;22.90;48.30
44775;DHT22;31340;51.402;0.016;2023-04-03T13:52:45;23.00;47.80
44775;DHT22;31340;51.402;0.016;2023-04-03T13:58:22;23.20;47.70
44775;DHT22;31340;51.402;0.016;2023-04-03T14:01:00;23.30;48.00
44775;DHT22;31340;51.402;0.016;2023-04-03T14:06:12;23.60;47.40
44775;DHT22;31340;51.402;0.016;2023-04-03T14:08:41;23.70;47.20
44775;DHT22;31340;51.402;0.016;2023-04-03T14:11:17;23.80;46.90
44775;DHT22;31340;51.402;0.016;2023-04-03T14:13:46;23.90;46.10
44775;DHT22;31340;51.402;0.016;2023-04-03T14:16:22;24.00;45.90
44775;DHT22;31340;51.402;0.016;2023-04-03T14:18:51;24.00;45.00
44775;DHT22;31340;51.402;0.016;2023-04-03T14:21:20;24.00;45.80
44775;DHT22;31340;51.402;0.016;2023-04-03T14:23:49;24.10;45.80
44775;DHT22;31340;51.402;0.016;2023-04-03T14:26:20;24.20;45.60
44775;DHT22;31340;51.402;0.016;2023-04-03T14:28:51;24.20;44.80
44775;DHT22;31340;51.402;0.016;2023-04-03T14:31:21;24.20;44.40
44775;DHT22;31340;51.402;0.016;2023-04-03T14:33:49;24.20;44.70
44775;DHT22;31340;51.402;0.016;2023-04-03T14:36:21;24.20;46.10
44775;DHT22;31340;51.402;0.016;2023-04-03T14:38:50;24.30;45.00
44775;DHT22;31340;51.402;0.016;2023-04-03T14:41:22;24.30;45.10
44775;DHT22;31340;51.402;0.016;2023-04-03T14:43:52;24.40;44.40
44775;DHT22;31340;51.402;0.016;2023-04-03T14:46:32;24.40;44.50
44775;DHT22;31340;51.402;0.016;2023-04-03T14:49:24;24.50;43.50
44775;DHT22;31340;51.402;0.016;2023-04-03T14:51:52;24.50;44.00
44775;DHT22;31340;51.402;0.016;2023-04-03T14:54:22;24.50;43.60
44775;DHT22;31340;51.402;0.016;2023-04-03T14:56:56;24.60;43.40
44775;DHT22;31340;51.402;0.016;2023-04-03T14:59:25;24.60;43.40
44775;DHT22;31340;51.402;0.016;2023-04-03T15:01:53;24.60;43.20
44775;DHT22;31340;51.402;0.016;2023-04-03T15:04:22;24.60;43.00
44775;DHT22;31340;51.402;0.016;2023-04-03T15:06:51;24.60;43.20
44775;DHT22;31340;51.402;0.016;2023-04-03T15:09:25;24.60;42.60
44775;DHT22;31340;51.402;0.016;2023-04-03T15:11:54;24.60;42.20
44775;DHT22;31340;51.402;0.016;2023-04-03T15:14:23;24.50;43.30
44775;DHT22;31340;51.402;0.016;2023-04-03T15:17:10;24.50;42.80
44775;DHT22;31340;51.402;0.016;2023-04-03T15:19:41;24.50;42.40
44775;DHT22;31340;51.402;0.016;2023-04-03T15:22:16;24.50;42.60
44775;DHT22;31340;51.402;0.016;2023-04-03T15:24:44;24.50;43.20
44775;DHT22;31340;51.402;0.016;2023-04-03T15:27:15;24.50;42.50
44775;DHT22;31340;51.402;0.016;2023-04-03T15:29:43;24.40;42.10
44775;DHT22;31340;51.402;0.016;2023-04-03T15:32:12;24.40;41.80
44775;DHT22;31340;51.402;0.016;2023-04-03T15:34:40;24.30;41.20
44775;DHT22;31340;51.402;0.016;2023-04-03T15:37:08;24.20;41.40
44775;DHT22;31340;51.402;0.016;2023-04-03T15:39:36;24.20;41.00
44775;DHT22;31340;51.402;0.016;2023-04-03T15:42:04;24.10;40.70
44775;DHT22;31340;51.402;0.016;2023-04-03T15:44:34;24.00;40.60
44775;DHT22;31340;51.402;0.016;2023-04-03T15:47:04;23.90;40.70
44775;DHT22;31340;51.402;0.016;2023-04-03T15:49:33;24.00;41.80
44775;DHT22;31340;51.402;0.016;2023-04-03T15:52:01;23.90;41.60
44775;DHT22;31340;51.402;0.016;2023-04-03T15:54:30;23.90;40.70
44775;DHT22;31340;51.402;0.016;2023-04-03T15:56:58;23.90;40.60
44775;DHT22;31340;51.402;0.016;2023-04-03T15:59:25;23.80;40.30
44775;DHT22;31340;51.402;0.016;2023-04-03T16:01:53;23.80;40.40
44775;DHT22;31340;51.402;0.016;2023-04-03T16:04:25;23.80;40.30
44775;DHT22;31340;51.402;0.016;2023-04-03T16:06:54;23.80;40.30
44775;DHT22;31340;51.402;0.016;2023-04-03T16:09:22;23.70;40.40
44775;DHT22;31340;51.402;0.016;2023-04-03T16:11:50;23.70;40.80
44775;DHT22;31340;51.402;0.016;2023-04-03T16:14:18;23.60;41.20
44775;DHT22;31340;51.402;0.016;2023-04-03T16:16:46;23.60;41.20
44775;DHT22;31340;51.402;0.016;2023-04-03T16:19:14;23.60;41.10
44775;DHT22;31340;51.402;0.016;2023-04-03T16:21:42;23.50;41.20
44775;DHT22;31340;51.402;0.016;2023-04-03T16:24:13;23.50;41.10
44775;DHT22;31340;51.402;0.016;2023-04-03T16:26:44;23.50;41.30
44775;DHT22;31340;51.402;0.016;2023-04-03T16:29:14;23.40;41.30
44775;DHT22;31340;51.402;0.016;2023-04-03T16:31:42;23.40;41.10
44775;DHT22;31340;51.402;0.016;2023-04-03T16:34:10;23.40;41.40
44775;DHT22;31340;51.402;0.016;2023-04-03T16:36:41;23.40;41.50
44775;DHT22;31340;51.402;0.016;2023-04-03T16:39:09;23.30;41.50
44775;DHT22;31340;51.402;0.016;2023-04-03T16:41:37;23.20;42.10
44775;DHT22;31340;51.402;0.016;2023-04-03T16:44:05;23.10;41.60
44775;DHT22;31340;51.402;0.016;2023-04-03T16:46:35;23.00;41.60
44775;DHT22;31340;51.402;0.016;2023-04-03T16:49:03;22.90;41.80
44775;DHT22;31340;51.402;0.016;2023-04-03T16:51:31;22.80;41.80
44775;DHT22;31340;51.402;0.016;2023-04-03T16:54:02;22.70;41.80
44775;DHT22;31340;51.402;0.016;2023-04-03T16:56:30;22.60;41.80
44775;DHT22;31340;51.402;0.016;2023-04-03T16:58:59;22.50;41.90
44775;DHT22;31340;51.402;0.016;2023-04-03T17:01:26;22.30;42.00
44775;DHT22;31340;51.402;0.016;2023-04-03T17:03:54;22.30;41.80
44775;DHT22;31340;51.402;0.016;2023-04-03T17:06:23;22.10;41.80
44775;DHT22;31340;51.402;0.016;2023-04-03T17:08:51;22.00;42.00
44775;DHT22;31340;51.402;0.016;2023-04-03T17:11:40;21.80;42.00
44775;DHT22;31340;51.402;0.016;2023-04-03T17:14:11;21.50;42.20
44775;DHT22;31340;51.402;0.016;2023-04-03T17:16:39;21.20;42.60
44775;DHT22;31340;51.402;0.016;2023-04-03T17:19:08;20.80;42.80
44775;DHT22;31340;51.402;0.016;2023-04-03T17:21:37;20.50;42.90
44775;DHT22;31340;51.402;0.016;2023-04-03T17:24:08;20.20;43.20
44775;DHT22;31340;51.402;0.016;2023-04-03T17:26:41;19.80;43.50
44775;DHT22;31340;51.402;0.016;2023-04-03T17:29:09;19.50;44.00
44775;DHT22;31340;51.402;0.016;2023-04-03T17:31:37;19.00;44.50
44775;DHT22;31340;51.402;0.016;2023-04-03T17:34:05;18.70;45.10
44775;DHT22;31340;51.402;0.016;2023-04-03T17:36:33;18.30;45.70
44775;DHT22;31340;51.402;0.016;2023-04-03T17:39:01;18.00;46.30
44775;DHT22;31340;51.402;0.016;2023-04-03T17:41:29;17.60;46.90
44775;DHT22;31340;51.402;0.016;2023-04-03T17:43:57;17.20;47.40
44775;DHT22;31340;51.402;0.016;2023-04-03T17:46:25;16.90;48.00
44775;DHT22;31340;51.402;0.016;2023-04-03T17:48:53;16.60;48.60
44775;DHT22;31340;51.402;0.016;2023-04-03T17:51:22;16.30;49.20
44775;DHT22;31340;51.402;0.016;2023-04-03T17:53:50;16.10;50.00
44775;DHT22;31340;51.402;0.016;2023-04-03T17:56:21;15.70;50.60